Akiak, AK (99552)

4:23 AM AKST on February 14, 2016 (GMT -0900)
Kwethluk AP, Kwethluk, AK | | Change Station
CLOSE
Current Station
Airport
Location: Kwethluk AP, Kwethluk, AK,
Elevation: 26 ft
Nearby Weather Stations

Elev 26 ft 60.79 °N, 161.44 °W | Updated 27 minutes ago

Partly Cloudy
Partly Cloudy
17 °F
Feels Like 9 °F
N
6
Wind Variable Wind from NNE

Today
High -- | Low -- °F
--% Chance of Precip.
Yesterday
High -- | Low -- °F
Precip. -- in
Pressure 29.27 in
Visibility 10.0 miles
Clouds Few 5000 ft
Windchill 9 °F
Dew Point 15 °F
Humidity 92%
Rainfall 0.00 in
Snow Depth Not available.
9:29 AM 6:29 PM
Waxing Crescent, 41% visible
METAR PFKW 141256Z AUTO 02005KT 10SM FEW050 M08/M09 A2927 RMK AO2 SLP912 T10831094 FZRANO
Pressure 29.27 in
Visibility 10.0 miles
Clouds Few 5000 ft
Windchill 9 °F
Dew Point 15 °F
Humidity 92%
Rainfall 0.00 in
Snow Depth Not available.
9:29 AM 6:29 PM
Waxing Crescent, 41% visible
METAR PFKW 141256Z AUTO 02005KT 10SM FEW050 M08/M09 A2927 RMK AO2 SLP912 T10831094 FZRANO

10-Day Weather Forecast

Almanac

Astronomy

Feb. 14, 2016 Rise Set
Actual Time
Civil Twilight
Nautical Twilight
Astronomical Twilight
Moon
Length of Visible Light
Length of Day
Tomorrow will be .
, % of the Moon is Illuminated

Today's Extremes

State Highs State Lows

Community

WunderPhotos

Upload Photos

1,892,785 photos uploaded!

WunderBlog® & News

Nearby

Air Quality

  Air Quality AQ Index Pollutant
Not available.

Snow Depth

Station Depth Elevation

Earthquake Activity

City Distance Mag. Time & Date
Minimum magnitude displayed is 2.5.

Coastal Water Temperatures

Place Temperature

Stations

Nearby Weather Stations

Station Location Temp. Windchill Dew Point Humidity Wind Precip. Elev Updated Type
                   

Watches & Warnings

There are currently no watches in effect.